createdAt,value
2023-03-24T00:00:20.516Z,7.10
2023-03-24T00:02:48.744Z,7.10
2023-03-24T00:05:19.281Z,7.10
2023-03-24T00:07:47.078Z,7.10
2023-03-24T00:10:18.100Z,7.10
2023-03-24T00:12:46.433Z,7.10
2023-03-24T00:15:20.240Z,7.10
2023-03-24T00:17:50.665Z,7.10
2023-03-24T00:20:20.407Z,7.10
2023-03-24T00:22:51.147Z,7.00
2023-03-24T00:25:23.792Z,7.10
2023-03-24T00:27:51.683Z,7.00
2023-03-24T00:30:19.932Z,7.00
2023-03-24T00:32:47.463Z,7.00
2023-03-24T00:35:16.424Z,7.00
2023-03-24T00:37:44.665Z,7.00
2023-03-24T00:40:17.031Z,7.00
2023-03-24T00:42:46.251Z,7.00
2023-03-24T00:45:18.228Z,7.00
2023-03-24T00:47:45.463Z,7.00
2023-03-24T00:50:16.007Z,7.00
2023-03-24T00:52:44.282Z,6.90
2023-03-24T00:55:15.978Z,6.90
2023-03-24T00:57:51.722Z,6.90
2023-03-24T01:00:21.667Z,6.90
2023-03-24T01:02:53.874Z,6.90
2023-03-24T01:05:29.740Z,7.00
2023-03-24T01:07:58.400Z,6.90
2023-03-24T01:10:30.235Z,6.90
2023-03-24T01:13:00.043Z,6.90
2023-03-24T01:15:30.315Z,7.00
2023-03-24T01:17:57.867Z,6.90
2023-03-24T01:20:25.599Z,7.00
2023-03-24T01:22:53.330Z,7.10
2023-03-24T01:25:22.165Z,7.10
2023-03-24T01:27:51.199Z,7.10
2023-03-24T01:30:22.424Z,7.10
2023-03-24T01:32:49.532Z,7.10
2023-03-24T01:35:17.082Z,7.20
2023-03-24T01:37:44.095Z,7.20
2023-03-24T01:40:20.811Z,7.20
2023-03-24T01:42:48.285Z,7.20
2023-03-24T01:45:41.032Z,7.20
2023-03-24T01:48:28.963Z,7.20
2023-03-24T01:51:13.037Z,7.20
2023-03-24T01:53:54.400Z,7.20
2023-03-24T01:56:22.372Z,7.20
2023-03-24T01:58:56.592Z,7.20
2023-03-24T02:01:26.411Z,7.20
2023-03-24T02:03:53.656Z,7.20
2023-03-24T02:06:23.367Z,7.10
2023-03-24T02:08:56.197Z,7.20
2023-03-24T02:11:25.199Z,7.10
2023-03-24T02:13:52.126Z,7.20
2023-03-24T02:16:31.109Z,7.10
2023-03-24T02:19:16.634Z,7.10
2023-03-24T02:21:58.306Z,7.10
2023-03-24T02:25:09.041Z,7.10
2023-03-24T02:27:56.856Z,7.20
2023-03-24T02:30:45.727Z,7.20
2023-03-24T02:33:15.550Z,7.20
2023-03-24T02:36:02.814Z,7.20
2023-03-24T02:38:53.715Z,7.20
2023-03-24T02:41:23.670Z,7.10
2023-03-24T02:44:16.263Z,7.10
2023-03-24T02:46:57.513Z,7.10
2023-03-24T02:49:39.079Z,7.10
2023-03-24T02:52:21.938Z,7.10
2023-03-24T02:55:22.023Z,7.00
2023-03-24T02:57:57.873Z,6.90
2023-03-24T03:00:47.179Z,6.90
2023-03-24T03:03:43.568Z,6.90
2023-03-24T03:06:24.908Z,6.80
2023-03-24T03:08:53.097Z,6.80
2023-03-24T03:11:20.693Z,6.80
2023-03-24T03:13:59.487Z,6.70
2023-03-24T03:16:39.242Z,6.70
2023-03-24T03:19:30.497Z,6.70
2023-03-24T03:21:58.790Z,6.70
2023-03-24T03:24:31.132Z,6.60
2023-03-24T03:27:19.332Z,6.60
2023-03-24T03:29:51.588Z,6.50
2023-03-24T03:32:24.858Z,6.50
2023-03-24T03:35:01.130Z,6.50
2023-03-24T03:37:33.948Z,6.50
2023-03-24T03:40:16.531Z,6.50
2023-03-24T03:42:44.243Z,6.50
2023-03-24T03:45:12.429Z,6.40
2023-03-24T03:47:39.789Z,6.50
2023-03-24T03:50:08.952Z,6.40
2023-03-24T03:52:38.892Z,6.40
2023-03-24T03:55:06.919Z,6.40
2023-03-24T03:57:35.676Z,6.30
2023-03-24T04:00:15.861Z,6.30
2023-03-24T04:03:01.561Z,6.20
2023-03-24T04:06:01.952Z,6.10
2023-03-24T04:09:03.716Z,6.20
2023-03-24T04:11:46.364Z,6.10
2023-03-24T04:14:21.141Z,6.10
2023-03-24T04:17:26.475Z,6.00
2023-03-24T04:19:55.846Z,6.20
2023-03-24T04:22:31.822Z,6.10
2023-03-24T04:25:16.375Z,6.10
2023-03-24T04:27:57.133Z,6.20
2023-03-24T04:30:37.346Z,6.20
2023-03-24T04:33:22.450Z,6.20
2023-03-24T04:35:55.939Z,6.20
2023-03-24T04:38:27.806Z,6.20
2023-03-24T04:40:56.476Z,6.20
2023-03-24T04:43:28.928Z,6.20
2023-03-24T04:45:58.075Z,6.10
2023-03-24T04:48:26.249Z,6.20
2023-03-24T04:51:01.938Z,6.20
2023-03-24T04:53:29.599Z,6.20
2023-03-24T04:56:05.684Z,6.30
2023-03-24T04:58:32.675Z,6.20
2023-03-24T05:00:59.820Z,6.30
2023-03-24T05:03:26.885Z,6.30
2023-03-24T05:05:54.027Z,6.30
2023-03-24T05:08:21.564Z,6.30
2023-03-24T05:10:48.739Z,6.30
2023-03-24T05:13:16.456Z,6.40
2023-03-24T05:15:43.843Z,6.40
2023-03-24T05:18:11.193Z,6.40
2023-03-24T05:20:38.582Z,6.40
2023-03-24T05:23:05.703Z,6.40
2023-03-24T05:25:32.736Z,6.40
2023-03-24T05:27:59.805Z,6.50
2023-03-24T05:30:26.751Z,6.50
2023-03-24T05:32:53.764Z,6.50
2023-03-24T05:35:20.755Z,6.50
2023-03-24T05:37:47.695Z,6.50
2023-03-24T05:40:15.827Z,6.60
2023-03-24T05:42:42.909Z,6.60
2023-03-24T05:45:11.399Z,6.50
2023-03-24T05:47:38.694Z,6.60
2023-03-24T05:50:06.407Z,6.60
2023-03-24T05:52:34.391Z,6.60
2023-03-24T05:55:02.136Z,6.60
2023-03-24T05:57:31.905Z,6.60
2023-03-24T05:59:58.831Z,6.60
2023-03-24T06:02:25.981Z,6.70
2023-03-24T06:04:53.112Z,6.60
2023-03-24T06:07:20.221Z,6.70
2023-03-24T06:09:47.466Z,6.70
2023-03-24T06:12:16.316Z,6.70
2023-03-24T06:14:43.904Z,6.70
2023-03-24T06:17:15.051Z,6.70
2023-03-24T06:19:49.481Z,6.70
2023-03-24T06:22:20.192Z,6.70
2023-03-24T06:24:47.934Z,6.70
2023-03-24T06:27:15.957Z,6.70
2023-03-24T06:29:42.943Z,6.80
2023-03-24T06:32:10.840Z,6.80
2023-03-24T06:34:38.932Z,6.90
2023-03-24T06:37:06.004Z,6.90
2023-03-24T06:39:33.066Z,6.90
2023-03-24T06:42:00.021Z,6.90
2023-03-24T06:44:27.061Z,7.00
2023-03-24T06:46:54.103Z,6.90
2023-03-24T06:49:21.353Z,7.00
2023-03-24T06:51:48.640Z,7.00
2023-03-24T06:54:15.984Z,7.00
2023-03-24T06:56:43.575Z,7.00
2023-03-24T06:59:10.672Z,7.10
2023-03-24T07:01:38.564Z,7.00
2023-03-24T07:04:06.127Z,7.00
2023-03-24T07:06:40.281Z,7.10
2023-03-24T07:09:14.329Z,7.10
2023-03-24T07:11:41.520Z,7.10
2023-03-24T07:14:08.641Z,7.10
2023-03-24T07:16:35.924Z,7.10
2023-03-24T07:19:02.953Z,7.10
2023-03-24T07:21:29.875Z,7.10
2023-03-24T07:23:56.780Z,7.20
2023-03-24T07:26:23.673Z,7.30
2023-03-24T07:28:50.690Z,7.30
2023-03-24T07:31:17.659Z,7.30
2023-03-24T07:33:44.548Z,7.30
2023-03-24T07:36:11.761Z,7.40
2023-03-24T07:38:38.769Z,7.40
2023-03-24T07:41:05.962Z,7.40
2023-03-24T07:43:32.948Z,7.50
2023-03-24T07:45:59.935Z,7.50
2023-03-24T07:48:27.205Z,7.50
2023-03-24T07:50:54.236Z,7.50
2023-03-24T07:53:21.246Z,7.50
2023-03-24T07:55:48.709Z,7.40
2023-03-24T07:58:15.959Z,7.50
2023-03-24T08:00:43.196Z,7.50
2023-03-24T08:03:14.450Z,7.50
2023-03-24T08:05:42.478Z,7.60
2023-03-24T08:08:10.039Z,7.60
2023-03-24T08:10:37.213Z,7.70
2023-03-24T08:13:04.258Z,7.70
2023-03-24T08:15:31.713Z,7.70
2023-03-24T08:17:58.801Z,7.70
2023-03-24T08:20:27.409Z,7.70
2023-03-24T08:22:54.873Z,7.70
2023-03-24T08:25:24.732Z,7.70
2023-03-24T08:27:52.283Z,7.70
2023-03-24T08:30:24.426Z,7.70
2023-03-24T08:32:54.152Z,7.70
2023-03-24T08:35:24.616Z,7.70
2023-03-24T08:37:52.781Z,7.70
2023-03-24T08:40:23.470Z,7.70
2023-03-24T08:42:53.500Z,7.70
2023-03-24T08:45:22.125Z,7.80
2023-03-24T08:47:50.695Z,7.90
2023-03-24T08:50:19.905Z,7.80
2023-03-24T08:52:49.545Z,7.80
2023-03-24T08:55:18.631Z,7.90
2023-03-24T08:57:45.976Z,7.80
2023-03-24T09:00:18.462Z,7.90
2023-03-24T09:02:51.936Z,8.00
2023-03-24T09:05:29.373Z,8.00
2023-03-24T09:08:04.302Z,8.00
2023-03-24T09:10:31.271Z,8.10
2023-03-24T09:12:58.174Z,8.10
2023-03-24T09:15:25.413Z,8.20
2023-03-24T09:17:52.359Z,8.20
2023-03-24T09:20:19.463Z,8.20
2023-03-24T09:22:47.166Z,8.30
2023-03-24T09:25:17.773Z,8.30
2023-03-24T09:27:45.526Z,8.40
2023-03-24T09:30:15.083Z,8.50
2023-03-24T09:32:42.070Z,8.40
2023-03-24T09:35:10.137Z,8.40
2023-03-24T09:37:39.013Z,8.50
2023-03-24T09:40:07.898Z,8.50
2023-03-24T09:42:41.353Z,8.50
2023-03-24T09:45:18.474Z,8.60
2023-03-24T09:48:01.378Z,8.60
2023-03-24T09:50:51.888Z,8.60
2023-03-24T09:53:38.297Z,8.70
2023-03-24T09:56:16.460Z,8.80
2023-03-24T09:58:45.555Z,8.70
2023-03-24T10:01:15.517Z,8.80
2023-03-24T10:03:44.392Z,8.90
2023-03-24T10:06:23.122Z,9.00
2023-03-24T10:09:00.668Z,9.00
2023-03-24T10:11:48.884Z,8.90
2023-03-24T10:14:31.882Z,9.00
2023-03-24T10:17:24.758Z,9.00
2023-03-24T10:20:28.213Z,8.90
2023-03-24T10:23:03.436Z,8.90
2023-03-24T10:25:54.830Z,8.90
2023-03-24T10:28:26.744Z,8.80
2023-03-24T10:30:56.337Z,8.70
2023-03-24T10:33:23.308Z,8.70
2023-03-24T10:36:03.635Z,8.50
2023-03-24T10:38:31.837Z,8.40
2023-03-24T10:40:59.997Z,8.40
2023-03-24T10:43:28.203Z,8.20
2023-03-24T10:45:57.507Z,8.10
2023-03-24T10:48:45.372Z,8.10
2023-03-24T10:51:21.569Z,8.20
2023-03-24T10:53:49.178Z,8.20
2023-03-24T10:56:19.103Z,8.20
2023-03-24T10:58:47.424Z,8.20
2023-03-24T11:01:32.658Z,8.10
2023-03-24T11:04:14.118Z,8.10
2023-03-24T11:07:02.573Z,8.10
2023-03-24T11:09:30.126Z,8.20
2023-03-24T11:12:02.625Z,8.20
2023-03-24T11:14:30.909Z,8.20
2023-03-24T11:17:12.877Z,8.30
2023-03-24T11:19:40.028Z,8.30
2023-03-24T11:22:08.812Z,8.40
2023-03-24T11:24:37.852Z,8.40
2023-03-24T11:27:05.076Z,8.40
2023-03-24T11:29:34.203Z,8.40
2023-03-24T11:32:03.570Z,8.50
2023-03-24T11:34:38.626Z,8.50
2023-03-24T11:37:13.542Z,8.60
2023-03-24T11:39:40.598Z,8.60
2023-03-24T11:42:16.323Z,8.60
2023-03-24T11:44:53.821Z,8.50
2023-03-24T11:47:33.695Z,8.50
2023-03-24T11:50:09.513Z,8.40
2023-03-24T11:52:56.738Z,8.30
2023-03-24T11:55:40.494Z,8.20
2023-03-24T11:58:31.562Z,8.10
2023-03-24T12:01:05.146Z,8.10
2023-03-24T12:04:02.966Z,8.10
2023-03-24T12:07:07.130Z,8.00
2023-03-24T12:09:52.370Z,8.00
2023-03-24T12:12:33.595Z,7.90
2023-03-24T12:15:26.801Z,8.00
2023-03-24T12:18:16.415Z,7.70
2023-03-24T12:20:58.566Z,7.70
2023-03-24T12:23:46.228Z,7.70
2023-03-24T12:26:23.585Z,7.60
2023-03-24T12:28:56.120Z,7.40
2023-03-24T12:31:41.793Z,7.30
2023-03-24T12:34:46.106Z,7.30
2023-03-24T12:37:22.258Z,7.20
2023-03-24T12:40:06.452Z,7.20
2023-03-24T12:42:41.032Z,7.10
2023-03-24T12:45:32.526Z,7.00
2023-03-24T12:47:59.441Z,7.00
2023-03-24T12:50:34.905Z,7.00
2023-03-24T12:55:43.680Z,6.90
2023-03-24T12:58:13.456Z,6.80
2023-03-24T13:01:07.589Z,6.70
2023-03-24T13:04:01.988Z,6.70
2023-03-24T13:06:58.600Z,6.60
2023-03-24T13:09:41.680Z,6.60
2023-03-24T13:12:25.030Z,6.50
2023-03-24T13:15:04.969Z,6.50
2023-03-24T13:17:55.655Z,6.40
2023-03-24T13:20:32.095Z,6.40
2023-03-24T13:23:12.162Z,6.30
2023-03-24T13:25:49.590Z,6.20
2023-03-24T13:28:25.244Z,6.20
2023-03-24T13:30:52.445Z,6.00
2023-03-24T13:33:27.923Z,6.10
2023-03-24T13:36:10.248Z,6.10
2023-03-24T13:38:59.905Z,6.10
2023-03-24T13:41:31.972Z,6.00
2023-03-24T13:44:09.324Z,5.90
2023-03-24T13:46:38.359Z,5.80
2023-03-24T13:49:11.412Z,5.80
2023-03-24T13:51:44.454Z,5.90
2023-03-24T13:54:23.958Z,5.80
2023-03-24T13:57:16.299Z,5.80
2023-03-24T14:00:12.082Z,5.80
2023-03-24T14:02:58.331Z,5.80
2023-03-24T14:05:49.889Z,5.80
2023-03-24T14:08:17.809Z,5.70
2023-03-24T14:10:50.165Z,5.70
2023-03-24T14:13:17.024Z,5.70
2023-03-24T14:15:56.466Z,5.70
2023-03-24T14:18:23.479Z,5.70
2023-03-24T14:20:56.657Z,5.70
2023-03-24T14:23:45.871Z,5.70
2023-03-24T14:26:29.545Z,5.70
2023-03-24T14:29:00.282Z,5.70
2023-03-24T14:31:33.245Z,5.80
2023-03-24T14:34:25.368Z,5.80
2023-03-24T14:37:07.724Z,5.90
2023-03-24T14:39:44.496Z,6.00
2023-03-24T14:42:33.130Z,5.90
2023-03-24T14:45:27.258Z,6.00
2023-03-24T14:48:02.724Z,6.00
2023-03-24T14:50:30.129Z,6.00
2023-03-24T14:53:03.523Z,6.10
2023-03-24T14:55:31.067Z,6.10
2023-03-24T14:58:03.190Z,6.10
2023-03-24T15:00:32.937Z,6.10
2023-03-24T15:03:29.205Z,6.10
2023-03-24T15:06:23.163Z,6.10
2023-03-24T15:09:05.305Z,6.10
2023-03-24T15:11:35.485Z,6.10
2023-03-24T15:14:05.335Z,6.00
2023-03-24T15:16:35.814Z,6.00
2023-03-24T15:19:21.744Z,6.00
2023-03-24T15:21:51.771Z,5.90
2023-03-24T15:24:21.547Z,5.90
2023-03-24T15:27:08.869Z,5.80
2023-03-24T15:29:38.282Z,5.90
2023-03-24T15:32:06.739Z,5.80
2023-03-24T15:34:40.548Z,5.90
2023-03-24T15:37:41.490Z,5.80
2023-03-24T15:40:31.679Z,5.80
2023-03-24T15:43:06.646Z,5.90
2023-03-24T15:46:01.418Z,5.90
2023-03-24T15:48:36.859Z,5.90
2023-03-24T15:51:06.693Z,6.00
2023-03-24T15:53:33.579Z,5.90
2023-03-24T15:56:20.024Z,5.90
2023-03-24T15:58:57.156Z,5.90
2023-03-24T16:01:36.031Z,6.00
2023-03-24T16:04:07.666Z,6.00
2023-03-24T16:06:36.766Z,6.00
2023-03-24T16:09:11.947Z,6.00
2023-03-24T16:11:38.960Z,6.00
2023-03-24T16:14:25.285Z,6.00
2023-03-24T16:16:58.386Z,6.00
2023-03-24T16:19:26.107Z,6.00
2023-03-24T16:21:54.861Z,6.00
2023-03-24T16:24:22.654Z,6.10
2023-03-24T16:26:50.323Z,6.00
2023-03-24T16:29:22.473Z,6.00
2023-03-24T16:31:55.449Z,6.00
2023-03-24T16:34:23.657Z,6.10
2023-03-24T16:36:53.114Z,6.10
2023-03-24T16:39:23.404Z,6.00
2023-03-24T16:41:51.026Z,6.10
2023-03-24T16:44:18.473Z,6.10
2023-03-24T16:46:47.454Z,6.10
2023-03-24T16:49:16.714Z,6.10
2023-03-24T16:51:44.477Z,6.10
2023-03-24T16:54:11.632Z,6.10
2023-03-24T16:56:39.601Z,6.10
2023-03-24T16:59:07.266Z,6.10
2023-03-24T17:01:35.866Z,6.10
2023-03-24T17:04:09.526Z,6.10
2023-03-24T17:06:39.438Z,6.10
2023-03-24T17:09:06.914Z,6.10
2023-03-24T17:11:36.859Z,6.20
2023-03-24T17:14:08.317Z,6.20
2023-03-24T17:16:38.353Z,6.20
2023-03-24T17:19:08.433Z,6.20
2023-03-24T17:21:41.675Z,6.20
2023-03-24T17:24:10.895Z,6.20
2023-03-24T17:26:39.640Z,6.30
2023-03-24T17:29:07.404Z,6.30
2023-03-24T17:31:34.309Z,6.40
2023-03-24T17:34:08.483Z,6.40
2023-03-24T17:36:38.807Z,6.40
2023-03-24T17:39:05.736Z,6.50
2023-03-24T17:41:32.629Z,6.50
2023-03-24T17:43:59.477Z,6.60
2023-03-24T17:46:26.392Z,6.60
2023-03-24T17:48:53.317Z,6.60
2023-03-24T17:51:20.477Z,6.60
2023-03-24T17:53:47.556Z,6.70
2023-03-24T17:56:14.519Z,6.70
2023-03-24T17:58:41.704Z,6.80
2023-03-24T18:01:09.058Z,6.80
2023-03-24T18:03:38.013Z,6.80
2023-03-24T18:06:09.490Z,6.90
2023-03-24T18:08:37.384Z,6.90
2023-03-24T18:11:12.920Z,6.90
2023-03-24T18:13:39.978Z,6.90
2023-03-24T18:16:20.022Z,7.00
2023-03-24T18:18:49.155Z,7.00
2023-03-24T18:21:16.600Z,7.10
2023-03-24T18:23:43.961Z,7.10
2023-03-24T18:26:11.244Z,7.10
2023-03-24T18:28:39.278Z,7.20
2023-03-24T18:31:10.732Z,7.20
2023-03-24T18:33:37.700Z,7.20
2023-03-24T18:36:06.030Z,7.20
2023-03-24T18:38:32.978Z,7.20
2023-03-24T18:41:01.561Z,7.20
2023-03-24T18:43:37.927Z,7.30
2023-03-24T18:46:09.437Z,7.30
2023-03-24T18:48:37.787Z,7.30
2023-03-24T18:51:05.560Z,7.30
2023-03-24T18:53:34.578Z,7.30
2023-03-24T18:56:02.539Z,7.30
2023-03-24T18:58:29.741Z,7.30
2023-03-24T19:00:58.531Z,7.30
2023-03-24T19:03:27.503Z,7.40
2023-03-24T19:05:54.540Z,7.40
2023-03-24T19:08:22.511Z,7.50
2023-03-24T19:10:50.036Z,7.40
2023-03-24T19:13:17.211Z,7.40
2023-03-24T19:15:49.128Z,7.40
2023-03-24T19:18:16.436Z,7.50
2023-03-24T19:20:43.570Z,7.50
2023-03-24T19:23:10.550Z,7.50
2023-03-24T19:25:37.569Z,7.50
2023-03-24T19:28:04.705Z,7.50
2023-03-24T19:30:31.690Z,7.50
2023-03-24T19:32:58.655Z,7.50
2023-03-24T19:35:26.184Z,7.50
2023-03-24T19:37:53.849Z,7.60
2023-03-24T19:40:20.974Z,7.60
2023-03-24T19:42:48.019Z,7.60
2023-03-24T19:45:16.725Z,7.60
2023-03-24T19:47:45.848Z,7.60
2023-03-24T19:50:15.559Z,7.60
2023-03-24T19:52:48.800Z,7.60
2023-03-24T19:55:15.956Z,7.60
2023-03-24T19:57:42.985Z,7.60
2023-03-24T20:00:13.812Z,7.60
2023-03-24T20:02:41.776Z,7.60
2023-03-24T20:05:09.820Z,7.60
2023-03-24T20:07:37.397Z,7.60
2023-03-24T20:10:04.652Z,7.50
2023-03-24T20:12:32.881Z,7.60
2023-03-24T20:14:59.859Z,7.60
2023-03-24T20:17:28.702Z,7.50
2023-03-24T20:19:56.540Z,7.60
2023-03-24T20:22:23.696Z,7.60
2023-03-24T20:24:50.764Z,7.60
2023-03-24T20:27:17.712Z,7.60
2023-03-24T20:29:46.223Z,7.50
2023-03-24T20:32:13.420Z,7.60
2023-03-24T20:34:40.813Z,7.50
2023-03-24T20:37:08.212Z,7.50
2023-03-24T20:39:35.354Z,7.50
2023-03-24T20:42:02.344Z,7.50
2023-03-24T20:44:29.236Z,7.50
2023-03-24T20:46:57.258Z,7.50
2023-03-24T20:49:25.936Z,7.50
2023-03-24T20:51:53.350Z,7.50
2023-03-24T20:54:21.306Z,7.50
2023-03-24T20:56:52.547Z,7.50
2023-03-24T20:59:19.962Z,7.50
2023-03-24T21:01:48.606Z,7.50
2023-03-24T21:04:18.297Z,7.50
2023-03-24T21:06:45.394Z,7.50
2023-03-24T21:09:13.243Z,7.40
2023-03-24T21:11:40.406Z,7.40
2023-03-24T21:14:07.400Z,7.40
2023-03-24T21:16:37.443Z,7.30
2023-03-24T21:19:04.986Z,7.30
2023-03-24T21:21:33.255Z,7.30
2023-03-24T21:24:00.903Z,7.30
2023-03-24T21:26:28.138Z,7.30
2023-03-24T21:28:55.072Z,7.20
2023-03-24T21:31:25.463Z,7.20
2023-03-24T21:33:53.756Z,7.10
2023-03-24T21:36:21.847Z,7.20
2023-03-24T21:38:50.021Z,7.10
2023-03-24T21:41:18.002Z,7.10
2023-03-24T21:43:51.387Z,7.10
2023-03-24T21:46:22.152Z,7.10
2023-03-24T21:48:51.448Z,7.00
2023-03-24T21:51:26.668Z,7.00
2023-03-24T21:53:59.360Z,7.00
2023-03-24T21:56:26.412Z,7.00
2023-03-24T21:58:54.836Z,7.00
2023-03-24T22:01:22.514Z,6.90
2023-03-24T22:03:50.987Z,6.90
2023-03-24T22:06:17.980Z,6.90
2023-03-24T22:08:48.768Z,6.80
2023-03-24T22:11:18.929Z,6.80
2023-03-24T22:13:46.626Z,6.70
2023-03-24T22:16:14.639Z,6.70
2023-03-24T22:18:41.858Z,6.60
2023-03-24T22:21:10.540Z,6.50
2023-03-24T22:23:40.508Z,6.50
2023-03-24T22:26:10.380Z,6.40
2023-03-24T22:28:38.367Z,6.30
2023-03-24T22:31:10.768Z,6.30
2023-03-24T22:33:38.476Z,6.20
2023-03-24T22:36:06.880Z,6.10
2023-03-24T22:38:34.561Z,6.10
2023-03-24T22:41:07.425Z,6.00
2023-03-24T22:43:35.325Z,6.00
2023-03-24T22:46:02.895Z,5.90
2023-03-24T22:48:29.846Z,5.80
2023-03-24T22:50:56.775Z,5.80
2023-03-24T22:53:24.052Z,5.70
2023-03-24T22:55:51.340Z,5.60
2023-03-24T22:58:18.639Z,5.60
2023-03-24T23:00:48.575Z,5.60
2023-03-24T23:03:16.130Z,5.50
2023-03-24T23:05:45.580Z,5.50
2023-03-24T23:08:14.629Z,5.40
2023-03-24T23:10:43.789Z,5.40
2023-03-24T23:13:11.241Z,5.40
2023-03-24T23:15:39.447Z,5.40
2023-03-24T23:18:06.659Z,5.40
2023-03-24T23:20:34.348Z,5.40
2023-03-24T23:23:02.788Z,5.40
2023-03-24T23:25:30.798Z,5.40
2023-03-24T23:27:58.679Z,5.40
2023-03-24T23:30:25.717Z,5.30
2023-03-24T23:32:53.014Z,5.30
2023-03-24T23:35:20.323Z,5.40
2023-03-24T23:37:47.342Z,5.40
2023-03-24T23:40:15.656Z,5.40
2023-03-24T23:42:46.495Z,5.40
2023-03-24T23:45:17.981Z,5.40
2023-03-24T23:47:49.779Z,5.40
2023-03-24T23:50:18.394Z,5.30
2023-03-24T23:52:45.522Z,5.30
2023-03-24T23:55:14.553Z,5.20
2023-03-24T23:57:42.604Z,5.10
